sensor_id;sensor_type;location;lat;lon;timestamp;pressure;altitude;pressure_sealevel;temperature;humidity
56040;BME280;43937;41.366;2.072;2023-06-22T00:03:07;100554.94;;;26.95;72.01
56040;BME280;43937;41.366;2.072;2023-06-22T00:05:33;100546.00;;;27.04;72.54
56040;BME280;43937;41.366;2.072;2023-06-22T00:09:59;100542.94;;;27.00;72.62
56040;BME280;43937;41.366;2.072;2023-06-22T00:12:25;100531.16;;;27.13;71.23
56040;BME280;43937;41.366;2.072;2023-06-22T00:14:50;100518.63;;;27.06;71.84
56040;BME280;43937;41.366;2.072;2023-06-22T00:17:16;100537.06;;;27.27;71.36
56040;BME280;43937;41.366;2.072;2023-06-22T00:19:41;100543.75;;;27.31;70.18
56040;BME280;43937;41.366;2.072;2023-06-22T00:22:07;100545.44;;;27.32;70.42
56040;BME280;43937;41.366;2.072;2023-06-22T00:24:32;100548.50;;;27.31;70.54
56040;BME280;43937;41.366;2.072;2023-06-22T00:26:58;100544.59;;;27.27;70.54
56040;BME280;43937;41.366;2.072;2023-06-22T00:29:23;100538.19;;;27.21;71.20
56040;BME280;43937;41.366;2.072;2023-06-22T00:31:48;100527.28;;;27.25;70.75
56040;BME280;43937;41.366;2.072;2023-06-22T00:34:14;100532.56;;;27.31;70.46
56040;BME280;43937;41.366;2.072;2023-06-22T00:36:39;100526.41;;;27.34;70.51
56040;BME280;43937;41.366;2.072;2023-06-22T00:39:06;100523.34;;;27.36;70.51
56040;BME280;43937;41.366;2.072;2023-06-22T00:41:32;100532.00;;;27.34;70.71
56040;BME280;43937;41.366;2.072;2023-06-22T00:43:58;100539.00;;;27.32;70.40
56040;BME280;43937;41.366;2.072;2023-06-22T00:46:24;100537.34;;;27.15;70.96
56040;BME280;43937;41.366;2.072;2023-06-22T00:48:51;100557.16;;;27.14;70.95
56040;BME280;43937;41.366;2.072;2023-06-22T00:51:17;100537.88;;;27.07;71.25
56040;BME280;43937;41.366;2.072;2023-06-22T00:53:43;100554.13;;;27.15;70.66
56040;BME280;43937;41.366;2.072;2023-06-22T00:56:08;100527.00;;;27.06;70.97
56040;BME280;43937;41.366;2.072;2023-06-22T00:58:35;100540.97;;;27.01;70.87
56040;BME280;43937;41.366;2.072;2023-06-22T01:01:01;100500.50;;;26.78;71.08
56040;BME280;43937;41.366;2.072;2023-06-22T01:03:27;100527.00;;;26.95;70.88
56040;BME280;43937;41.366;2.072;2023-06-22T01:05:59;100535.69;;;26.99;70.82
56040;BME280;43937;41.366;2.072;2023-06-22T01:13:58;100537.94;;;26.82;71.98
56040;BME280;43937;41.366;2.072;2023-06-22T01:16:30;100540.72;;;26.82;72.18
56040;BME280;43937;41.366;2.072;2023-06-22T01:19:00;100510.28;;;26.60;71.81
56040;BME280;43937;41.366;2.072;2023-06-22T01:21:28;100551.88;;;26.82;72.25
56040;BME280;43937;41.366;2.072;2023-06-22T01:27:00;100550.19;;;26.81;72.59
56040;BME280;43937;41.366;2.072;2023-06-22T01:29:30;100551.03;;;26.71;72.62
56040;BME280;43937;41.366;2.072;2023-06-22T01:31:57;100565.00;;;26.71;72.52
56040;BME280;43937;41.366;2.072;2023-06-22T01:34:24;100540.44;;;26.68;71.90
56040;BME280;43937;41.366;2.072;2023-06-22T01:36:51;100556.34;;;26.78;72.54
56040;BME280;43937;41.366;2.072;2023-06-22T01:39:17;100557.19;;;26.73;72.97
56040;BME280;43937;41.366;2.072;2023-06-22T01:41:44;100535.41;;;26.55;72.40
56040;BME280;43937;41.366;2.072;2023-06-22T01:44:10;100557.19;;;26.68;72.87
56040;BME280;43937;41.366;2.072;2023-06-22T01:46:36;100552.97;;;26.65;73.45
56040;BME280;43937;41.366;2.072;2023-06-22T01:49:03;100552.97;;;26.65;73.37
56040;BME280;43937;41.366;2.072;2023-06-22T01:51:29;100551.59;;;26.73;73.28
56040;BME280;43937;41.366;2.072;2023-06-22T01:53:55;100550.50;;;26.79;72.27
56040;BME280;43937;41.366;2.072;2023-06-22T01:56:20;100550.50;;;26.79;71.93
56040;BME280;43937;41.366;2.072;2023-06-22T01:59:04;100551.88;;;26.71;72.55
56040;BME280;43937;41.366;2.072;2023-06-22T02:01:38;100556.06;;;26.74;72.78
56040;BME280;43937;41.366;2.072;2023-06-22T02:04:13;100562.78;;;26.78;72.44
56040;BME280;43937;41.366;2.072;2023-06-22T02:06:42;100547.97;;;26.67;72.12
56040;BME280;43937;41.366;2.072;2023-06-22T02:09:15;100547.41;;;26.70;71.50
56040;BME280;43937;41.366;2.072;2023-06-22T02:11:44;100554.97;;;26.75;72.04
56040;BME280;43937;41.366;2.072;2023-06-22T02:14:12;100531.78;;;26.64;72.19
56040;BME280;43937;41.366;2.072;2023-06-22T02:16:38;100537.94;;;26.66;72.24
56040;BME280;43937;41.366;2.072;2023-06-22T02:19:04;100558.03;;;26.79;72.35
56040;BME280;43937;41.366;2.072;2023-06-22T02:21:31;100546.03;;;26.78;71.28
56040;BME280;43937;41.366;2.072;2023-06-22T02:23:57;100549.09;;;26.82;71.40
56040;BME280;43937;41.366;2.072;2023-06-22T02:26:24;100561.38;;;26.76;71.85
56040;BME280;43937;41.366;2.072;2023-06-22T02:28:51;100561.38;;;26.81;71.88
56040;BME280;43937;41.366;2.072;2023-06-22T02:31:17;100566.41;;;26.89;71.26
56040;BME280;43937;41.366;2.072;2023-06-22T02:33:42;100549.91;;;26.77;71.46
56040;BME280;43937;41.366;2.072;2023-06-22T02:36:09;100547.13;;;26.82;71.36
56040;BME280;43937;41.366;2.072;2023-06-22T02:38:37;100544.63;;;26.91;70.48
56040;BME280;43937;41.366;2.072;2023-06-22T02:41:02;100535.97;;;26.77;70.36
56040;BME280;43937;41.366;2.072;2023-06-22T02:43:28;100544.06;;;26.68;70.07
56040;BME280;43937;41.366;2.072;2023-06-22T02:45:53;100550.50;;;26.79;68.50
56040;BME280;43937;41.366;2.072;2023-06-22T02:48:19;100551.88;;;26.92;68.49
56040;BME280;43937;41.366;2.072;2023-06-22T02:50:45;100567.25;;;27.00;67.91
56040;BME280;43937;41.366;2.072;2023-06-22T02:53:25;100553.28;;;26.89;68.27
56040;BME280;43937;41.366;2.072;2023-06-22T02:55:50;100562.22;;;26.97;68.01
56040;BME280;43937;41.366;2.072;2023-06-22T02:58:16;100568.34;;;26.99;67.83
56040;BME280;43937;41.366;2.072;2023-06-22T03:00:41;100553.00;;;26.86;67.71
56040;BME280;43937;41.366;2.072;2023-06-22T03:03:07;100551.88;;;26.82;68.59
56040;BME280;43937;41.366;2.072;2023-06-22T03:05:32;100543.78;;;26.70;69.84
56040;BME280;43937;41.366;2.072;2023-06-22T03:08:00;100543.25;;;26.63;70.17
56040;BME280;43937;41.366;2.072;2023-06-22T03:10:26;100529.00;;;26.69;69.73
56040;BME280;43937;41.366;2.072;2023-06-22T03:12:51;100530.38;;;26.62;69.06
56040;BME280;43937;41.366;2.072;2023-06-22T03:15:17;100555.78;;;26.70;67.93
56040;BME280;43937;41.366;2.072;2023-06-22T03:17:42;100553.84;;;26.61;68.46
56040;BME280;43937;41.366;2.072;2023-06-22T03:20:09;100554.69;;;26.66;68.06
56040;BME280;43937;41.366;2.072;2023-06-22T03:22:40;100552.72;;;26.62;68.22
56040;BME280;43937;41.366;2.072;2023-06-22T03:25:07;100554.97;;;26.70;67.68
56040;BME280;43937;41.366;2.072;2023-06-22T03:27:38;100537.66;;;26.63;67.76
56040;BME280;43937;41.366;2.072;2023-06-22T03:30:05;100545.75;;;26.69;68.20
56040;BME280;43937;41.366;2.072;2023-06-22T03:32:30;100524.22;;;26.65;66.80
56040;BME280;43937;41.366;2.072;2023-06-22T03:34:56;100522.28;;;26.70;66.76
56040;BME280;43937;41.366;2.072;2023-06-22T03:37:27;100534.28;;;26.71;66.50
56040;BME280;43937;41.366;2.072;2023-06-22T03:39:52;100534.28;;;26.71;66.11
56040;BME280;43937;41.366;2.072;2023-06-22T03:42:18;100521.72;;;26.58;66.28
56040;BME280;43937;41.366;2.072;2023-06-22T03:44:44;100549.38;;;26.65;66.52
56040;BME280;43937;41.366;2.072;2023-06-22T03:47:09;100553.56;;;26.67;65.41
56040;BME280;43937;41.366;2.072;2023-06-22T03:49:35;100552.72;;;26.62;65.73
56040;BME280;43937;41.366;2.072;2023-06-22T03:52:01;100568.63;;;26.66;65.56
56040;BME280;43937;41.366;2.072;2023-06-22T03:54:30;100573.66;;;26.64;66.27
56040;BME280;43937;41.366;2.072;2023-06-22T03:57:33;100574.78;;;26.58;65.77
56040;BME280;43937;41.366;2.072;2023-06-22T03:59:59;100572.25;;;26.52;65.96
56040;BME280;43937;41.366;2.072;2023-06-22T04:02:25;100577.50;;;26.43;67.21
56040;BME280;43937;41.366;2.072;2023-06-22T04:04:50;100553.41;;;26.11;67.58
56040;BME280;43937;41.366;2.072;2023-06-22T04:07:16;100582.75;;;26.19;66.77
56040;BME280;43937;41.366;2.072;2023-06-22T04:09:43;100594.16;;;26.12;65.29
56040;BME280;43937;41.366;2.072;2023-06-22T04:12:09;100580.44;;;25.95;64.60
56040;BME280;43937;41.366;2.072;2023-06-22T04:14:34;100568.59;;;25.73;63.61
56040;BME280;43937;41.366;2.072;2023-06-22T04:17:00;100581.81;;;25.88;63.63
56040;BME280;43937;41.366;2.072;2023-06-22T04:19:25;100581.72;;;25.77;62.33
56040;BME280;43937;41.366;2.072;2023-06-22T04:21:51;100588.78;;;25.90;61.76
56040;BME280;43937;41.366;2.072;2023-06-22T04:24:16;100586.31;;;26.04;60.82
56040;BME280;43937;41.366;2.072;2023-06-22T04:26:42;100590.50;;;26.01;61.03
56040;BME280;43937;41.366;2.072;2023-06-22T04:29:10;100585.53;;;26.09;59.95
56040;BME280;43937;41.366;2.072;2023-06-22T04:31:36;100595.53;;;25.99;60.15
56040;BME280;43937;41.366;2.072;2023-06-22T04:34:03;100594.94;;;25.97;60.39
56040;BME280;43937;41.366;2.072;2023-06-22T04:36:40;100614.50;;;26.08;61.13
56040;BME280;43937;41.366;2.072;2023-06-22T04:39:10;100614.22;;;26.04;60.44
56040;BME280;43937;41.366;2.072;2023-06-22T04:41:37;100614.75;;;26.01;60.51
56040;BME280;43937;41.366;2.072;2023-06-22T04:44:10;100613.41;;;26.09;60.36
56040;BME280;43937;41.366;2.072;2023-06-22T04:48:22;100624.56;;;26.14;58.39
56040;BME280;43937;41.366;2.072;2023-06-22T04:50:48;100628.47;;;26.13;58.45
56040;BME280;43937;41.366;2.072;2023-06-22T04:53:13;100616.22;;;26.19;57.06
56040;BME280;43937;41.366;2.072;2023-06-22T04:55:39;100614.06;;;26.36;56.32
56040;BME280;43937;41.366;2.072;2023-06-22T04:58:07;100626.13;;;26.62;54.83
56040;BME280;43937;41.366;2.072;2023-06-22T05:00:32;100606.34;;;26.79;53.57
56040;BME280;43937;41.366;2.072;2023-06-22T05:03:01;100635.41;;;27.19;52.00
56040;BME280;43937;41.366;2.072;2023-06-22T05:05:28;100643.81;;;27.45;51.66
56040;BME280;43937;41.366;2.072;2023-06-22T05:07:56;100641.25;;;27.58;50.48
56040;BME280;43937;41.366;2.072;2023-06-22T05:10:25;100642.59;;;27.71;50.54
56040;BME280;43937;41.366;2.072;2023-06-22T05:12:50;100617.75;;;27.70;50.07
56040;BME280;43937;41.366;2.072;2023-06-22T05:15:16;100648.75;;;27.94;49.40
56040;BME280;43937;41.366;2.072;2023-06-22T05:17:44;100662.63;;;28.19;48.84
56040;BME280;43937;41.366;2.072;2023-06-22T05:20:11;100644.13;;;30.05;44.79
56040;BME280;43937;41.366;2.072;2023-06-22T05:22:37;100659.81;;;31.24;42.55
56040;BME280;43937;41.366;2.072;2023-06-22T05:25:04;100669.81;;;32.24;40.48
56040;BME280;43937;41.366;2.072;2023-06-22T05:27:31;100687.81;;;33.14;38.50
56040;BME280;43937;41.366;2.072;2023-06-22T05:31:50;100712.59;;;33.62;37.04
56040;BME280;43937;41.366;2.072;2023-06-22T05:34:15;100691.44;;;34.62;36.18
56040;BME280;43937;41.366;2.072;2023-06-22T05:37:09;100705.59;;;35.40;34.49
56040;BME280;43937;41.366;2.072;2023-06-22T05:39:35;100713.44;;;35.61;33.82
56040;BME280;43937;41.366;2.072;2023-06-22T05:42:04;100717.59;;;35.54;33.97
56040;BME280;43937;41.366;2.072;2023-06-22T05:44:30;100707.28;;;35.59;33.49
56040;BME280;43937;41.366;2.072;2023-06-22T05:46:55;100712.06;;;35.75;33.06
56040;BME280;43937;41.366;2.072;2023-06-22T05:49:21;100722.88;;;36.88;31.97
56040;BME280;43937;41.366;2.072;2023-06-22T05:51:47;100717.69;;;37.32;31.00
56040;BME280;43937;41.366;2.072;2023-06-22T05:54:13;100717.59;;;38.32;30.15
56040;BME280;43937;41.366;2.072;2023-06-22T05:56:40;100706.38;;;37.45;31.51
56040;BME280;43937;41.366;2.072;2023-06-22T05:59:06;100719.88;;;38.39;29.68
56040;BME280;43937;41.366;2.072;2023-06-22T06:01:31;100737.63;;;38.85;29.22
56040;BME280;43937;41.366;2.072;2023-06-22T06:03:59;100743.56;;;37.85;30.44
56040;BME280;43937;41.366;2.072;2023-06-22T06:06:25;100726.84;;;38.29;30.09
56040;BME280;43937;41.366;2.072;2023-06-22T06:08:53;100752.09;;;38.43;29.74
56040;BME280;43937;41.366;2.072;2023-06-22T06:11:19;100753.63;;;39.02;28.90
56040;BME280;43937;41.366;2.072;2023-06-22T06:15:56;100741.91;;;38.66;28.97
56040;BME280;43937;41.366;2.072;2023-06-22T06:18:22;100740.78;;;36.12;32.83
56040;BME280;43937;41.366;2.072;2023-06-22T06:20:48;100741.59;;;35.22;33.56
56040;BME280;43937;41.366;2.072;2023-06-22T06:23:13;100743.78;;;34.11;35.53
56040;BME280;43937;41.366;2.072;2023-06-22T06:25:39;100733.09;;;33.77;36.69
56040;BME280;43937;41.366;2.072;2023-06-22T06:28:04;100749.28;;;37.10;31.52
56040;BME280;43937;41.366;2.072;2023-06-22T06:30:30;100766.63;;;38.04;29.71
56040;BME280;43937;41.366;2.072;2023-06-22T06:32:55;100767.75;;;38.86;28.96
56040;BME280;43937;41.366;2.072;2023-06-22T06:35:21;100779.78;;;39.88;27.69
56040;BME280;43937;41.366;2.072;2023-06-22T06:37:48;100787.59;;;39.91;27.22
56040;BME280;43937;41.366;2.072;2023-06-22T06:40:15;100774.31;;;40.59;26.68
56040;BME280;43937;41.366;2.072;2023-06-22T06:42:43;100770.16;;;40.56;26.32
56040;BME280;43937;41.366;2.072;2023-06-22T06:45:20;100790.19;;;41.07;26.05
56040;BME280;43937;41.366;2.072;2023-06-22T06:47:55;100790.66;;;40.93;26.00
56040;BME280;43937;41.366;2.072;2023-06-22T06:50:20;100798.78;;;40.60;26.16
56040;BME280;43937;41.366;2.072;2023-06-22T06:52:46;100800.31;;;41.05;25.99
56040;BME280;43937;41.366;2.072;2023-06-22T06:55:11;100807.00;;;41.12;25.50
56040;BME280;43937;41.366;2.072;2023-06-22T06:57:41;100797.19;;;40.94;25.14
56040;BME280;43937;41.366;2.072;2023-06-22T07:00:11;100803.09;;;41.95;24.73
56040;BME280;43937;41.366;2.072;2023-06-22T07:02:43;100803.94;;;41.21;25.77
56040;BME280;43937;41.366;2.072;2023-06-22T07:05:10;100809.31;;;42.43;23.80
56040;BME280;43937;41.366;2.072;2023-06-22T07:07:36;100815.59;;;39.21;27.93
56040;BME280;43937;41.366;2.072;2023-06-22T07:11:33;100812.38;;;41.33;25.29
56040;BME280;43937;41.366;2.072;2023-06-22T07:14:00;100798.91;;;36.27;31.86
56040;BME280;43937;41.366;2.072;2023-06-22T07:16:26;100787.50;;;34.53;34.73
56040;BME280;43937;41.366;2.072;2023-06-22T07:18:53;100813.66;;;36.59;31.53
56040;BME280;43937;41.366;2.072;2023-06-22T07:21:18;100786.69;;;34.61;34.50
56040;BME280;43937;41.366;2.072;2023-06-22T07:24:46;100799.34;;;36.46;32.34
56040;BME280;43937;41.366;2.072;2023-06-22T07:27:12;100781.69;;;35.33;33.03
56040;BME280;43937;41.366;2.072;2023-06-22T07:29:37;100804.22;;;37.05;31.15
56040;BME280;43937;41.366;2.072;2023-06-22T07:32:06;100815.00;;;41.23;25.25
56040;BME280;43937;41.366;2.072;2023-06-22T07:34:31;100829.38;;;43.19;24.07
56040;BME280;43937;41.366;2.072;2023-06-22T07:36:57;100830.69;;;43.89;22.81
56040;BME280;43937;41.366;2.072;2023-06-22T07:39:22;100840.06;;;44.20;21.98
56040;BME280;43937;41.366;2.072;2023-06-22T07:41:51;100839.03;;;43.37;22.83
56040;BME280;43937;41.366;2.072;2023-06-22T07:45:22;100856.28;;;43.41;22.66
56040;BME280;43937;41.366;2.072;2023-06-22T07:47:59;100857.00;;;43.95;22.24
56040;BME280;43937;41.366;2.072;2023-06-22T07:50:24;100856.28;;;44.42;21.73
56040;BME280;43937;41.366;2.072;2023-06-22T07:52:50;100869.00;;;44.04;21.61
56040;BME280;43937;41.366;2.072;2023-06-22T07:57:00;100874.47;;;43.82;21.39
56040;BME280;43937;41.366;2.072;2023-06-22T07:59:25;100872.00;;;44.55;21.69
56040;BME280;43937;41.366;2.072;2023-06-22T08:01:51;100864.69;;;44.62;20.82
56040;BME280;43937;41.366;2.072;2023-06-22T08:04:16;100865.94;;;42.57;23.27
56040;BME280;43937;41.366;2.072;2023-06-22T08:06:42;100864.84;;;42.19;22.96
56040;BME280;43937;41.366;2.072;2023-06-22T08:09:08;100869.66;;;39.98;25.48
56040;BME280;43937;41.366;2.072;2023-06-22T08:11:34;100862.09;;;39.12;27.18
56040;BME280;43937;41.366;2.072;2023-06-22T08:13:59;100864.19;;;41.67;24.44
56040;BME280;43937;41.366;2.072;2023-06-22T08:16:25;100863.88;;;42.76;22.69
56040;BME280;43937;41.366;2.072;2023-06-22T08:18:51;100863.00;;;42.99;22.43
56040;BME280;43937;41.366;2.072;2023-06-22T08:21:16;100858.59;;;43.92;21.86
56040;BME280;43937;41.366;2.072;2023-06-22T08:23:42;100876.81;;;44.07;20.91
56040;BME280;43937;41.366;2.072;2023-06-22T08:26:07;100880.44;;;44.00;20.93
56040;BME280;43937;41.366;2.072;2023-06-22T08:28:33;100869.44;;;44.43;20.45
56040;BME280;43937;41.366;2.072;2023-06-22T08:30:59;100864.41;;;43.96;21.51
56040;BME280;43937;41.366;2.072;2023-06-22T08:33:26;100861.19;;;44.42;21.63
56040;BME280;43937;41.366;2.072;2023-06-22T08:35:54;100853.50;;;44.49;20.86
56040;BME280;43937;41.366;2.072;2023-06-22T08:38:20;100854.75;;;43.81;21.23
56040;BME280;43937;41.366;2.072;2023-06-22T08:40:46;100862.75;;;43.64;21.45
56040;BME280;43937;41.366;2.072;2023-06-22T08:43:11;100858.75;;;43.12;22.25
56040;BME280;43937;41.366;2.072;2023-06-22T08:45:36;100853.34;;;42.84;22.45
56040;BME280;43937;41.366;2.072;2023-06-22T08:48:02;100811.69;;;42.18;22.22
56040;BME280;43937;41.366;2.072;2023-06-22T08:50:27;100856.03;;;43.00;21.89
56040;BME280;43937;41.366;2.072;2023-06-22T08:52:52;100855.38;;;42.61;22.35
56040;BME280;43937;41.366;2.072;2023-06-22T08:55:18;100852.41;;;42.11;22.95
56040;BME280;43937;41.366;2.072;2023-06-22T08:57:43;100857.25;;;41.68;23.44
56040;BME280;43937;41.366;2.072;2023-06-22T09:00:10;100857.56;;;41.82;23.75
56040;BME280;43937;41.366;2.072;2023-06-22T09:02:46;100842.00;;;41.25;23.95
56040;BME280;43937;41.366;2.072;2023-06-22T09:05:12;100848.28;;;40.51;24.90
56040;BME280;43937;41.366;2.072;2023-06-22T09:07:37;100852.38;;;38.52;26.61
56040;BME280;43937;41.366;2.072;2023-06-22T09:10:03;100833.56;;;38.26;27.05
56040;BME280;43937;41.366;2.072;2023-06-22T09:12:32;100831.00;;;38.00;27.39
56040;BME280;43937;41.366;2.072;2023-06-22T09:14:58;100842.91;;;37.61;28.27
56040;BME280;43937;41.366;2.072;2023-06-22T09:17:25;100850.19;;;36.52;29.60
56040;BME280;43937;41.366;2.072;2023-06-22T09:19:51;100840.31;;;36.66;29.78
56040;BME280;43937;41.366;2.072;2023-06-22T09:22:16;100834.31;;;36.68;29.62
56040;BME280;43937;41.366;2.072;2023-06-22T09:24:42;100830.53;;;36.85;29.06
56040;BME280;43937;41.366;2.072;2023-06-22T09:27:07;100851.38;;;36.89;29.51
56040;BME280;43937;41.366;2.072;2023-06-22T09:29:33;100842.69;;;36.56;30.06
56040;BME280;43937;41.366;2.072;2023-06-22T09:32:02;100853.56;;;36.83;29.22
56040;BME280;43937;41.366;2.072;2023-06-22T09:34:27;100851.66;;;36.66;29.10
56040;BME280;43937;41.366;2.072;2023-06-22T09:36:53;100845.41;;;36.82;28.94
56040;BME280;43937;41.366;2.072;2023-06-22T09:39:18;100840.31;;;36.96;28.73
56040;BME280;43937;41.366;2.072;2023-06-22T09:41:44;100831.75;;;36.75;28.74
56040;BME280;43937;41.366;2.072;2023-06-22T09:44:10;100843.97;;;36.97;28.69
56040;BME280;43937;41.366;2.072;2023-06-22T09:46:35;100846.06;;;36.79;29.44
56040;BME280;43937;41.366;2.072;2023-06-22T09:49:01;100852.19;;;36.60;28.52
56040;BME280;43937;41.366;2.072;2023-06-22T09:51:26;100850.28;;;36.73;28.55
56040;BME280;43937;41.366;2.072;2023-06-22T09:53:52;100860.06;;;36.84;28.68
56040;BME280;43937;41.366;2.072;2023-06-22T09:56:20;100841.03;;;36.55;28.94
56040;BME280;43937;41.366;2.072;2023-06-22T09:58:46;100851.31;;;36.68;28.55
56040;BME280;43937;41.366;2.072;2023-06-22T10:01:12;100843.75;;;36.81;28.55
56040;BME280;43937;41.366;2.072;2023-06-22T10:03:41;100851.53;;;37.22;28.27
56040;BME280;43937;41.366;2.072;2023-06-22T10:06:07;100846.34;;;37.45;28.10
56040;BME280;43937;41.366;2.072;2023-06-22T10:08:33;100824.38;;;37.33;27.45
56040;BME280;43937;41.366;2.072;2023-06-22T10:10:59;100839.06;;;36.76;28.26
56040;BME280;43937;41.366;2.072;2023-06-22T10:13:24;100825.91;;;36.80;27.94
56040;BME280;43937;41.366;2.072;2023-06-22T10:15:50;100849.38;;;36.42;28.47
56040;BME280;43937;41.366;2.072;2023-06-22T10:18:17;100848.38;;;36.56;28.51
56040;BME280;43937;41.366;2.072;2023-06-22T10:20:43;100857.38;;;36.87;28.37
56040;BME280;43937;41.366;2.072;2023-06-22T10:23:09;100844.31;;;36.65;28.93
56040;BME280;43937;41.366;2.072;2023-06-22T10:25:34;100834.72;;;36.40;28.87
56040;BME280;43937;41.366;2.072;2023-06-22T10:28:00;100835.38;;;35.55;29.99
56040;BME280;43937;41.366;2.072;2023-06-22T10:30:25;100859.78;;;36.21;29.50
56040;BME280;43937;41.366;2.072;2023-06-22T10:32:51;100849.41;;;36.34;29.26
56040;BME280;43937;41.366;2.072;2023-06-22T10:35:16;100851.69;;;36.58;28.18
56040;BME280;43937;41.366;2.072;2023-06-22T10:37:43;100853.66;;;36.66;28.42
56040;BME280;43937;41.366;2.072;2023-06-22T10:40:10;100836.34;;;35.60;29.11
56040;BME280;43937;41.366;2.072;2023-06-22T10:42:35;100831.91;;;35.01;29.80
56040;BME280;43937;41.366;2.072;2023-06-22T10:45:01;100877.50;;;34.60;30.80
56040;BME280;43937;41.366;2.072;2023-06-22T10:48:30;100869.28;;;34.50;30.11
56040;BME280;43937;41.366;2.072;2023-06-22T10:50:55;100864.03;;;34.57;30.56
56040;BME280;43937;41.366;2.072;2023-06-22T10:53:21;100878.84;;;34.09;32.04
56040;BME280;43937;41.366;2.072;2023-06-22T10:55:47;100868.38;;;34.32;31.33
56040;BME280;43937;41.366;2.072;2023-06-22T10:58:12;100857.47;;;34.16;30.78
56040;BME280;43937;41.366;2.072;2023-06-22T11:00:38;100859.91;;;33.87;30.86
56040;BME280;43937;41.366;2.072;2023-06-22T11:03:03;100874.97;;;33.82;30.48
56040;BME280;43937;41.366;2.072;2023-06-22T11:05:29;100881.38;;;33.96;30.32
56040;BME280;43937;41.366;2.072;2023-06-22T11:09:11;100881.50;;;34.05;29.53
56040;BME280;43937;41.366;2.072;2023-06-22T11:11:36;100888.56;;;34.16;29.28
56040;BME280;43937;41.366;2.072;2023-06-22T11:14:02;100885.75;;;34.25;29.90
56040;BME280;43937;41.366;2.072;2023-06-22T11:16:27;100877.75;;;35.21;28.60
56040;BME280;43937;41.366;2.072;2023-06-22T11:18:53;100882.31;;;34.99;28.37
56040;BME280;43937;41.366;2.072;2023-06-22T11:21:18;100883.56;;;34.76;29.16
56040;BME280;43937;41.366;2.072;2023-06-22T11:23:44;100865.72;;;34.67;29.22
56040;BME280;43937;41.366;2.072;2023-06-22T11:26:10;100877.06;;;34.44;30.03
56040;BME280;43937;41.366;2.072;2023-06-22T11:28:35;100873.88;;;35.08;28.90
56040;BME280;43937;41.366;2.072;2023-06-22T11:31:01;100850.41;;;34.68;30.09
56040;BME280;43937;41.366;2.072;2023-06-22T11:35:28;100867.00;;;35.00;29.47
56040;BME280;43937;41.366;2.072;2023-06-22T11:37:54;100861.34;;;35.00;29.05
56040;BME280;43937;41.366;2.072;2023-06-22T11:40:21;100846.94;;;34.71;29.24
56040;BME280;43937;41.366;2.072;2023-06-22T11:42:48;100846.53;;;34.24;29.18
56040;BME280;43937;41.366;2.072;2023-06-22T11:45:13;100822.41;;;34.97;28.18
56040;BME280;43937;41.366;2.072;2023-06-22T11:47:39;100844.97;;;35.28;28.15
56040;BME280;43937;41.366;2.072;2023-06-22T11:51:10;100816.19;;;35.70;27.81
56040;BME280;43937;41.366;2.072;2023-06-22T11:53:36;100821.69;;;35.58;28.16
56040;BME280;43937;41.366;2.072;2023-06-22T11:56:01;100826.16;;;35.85;27.35
56040;BME280;43937;41.366;2.072;2023-06-22T11:58:27;100840.09;;;37.31;25.79
56040;BME280;43937;41.366;2.072;2023-06-22T12:00:53;100829.88;;;37.59;26.19
56040;BME280;43937;41.366;2.072;2023-06-22T12:03:19;100836.69;;;38.00;25.43
56040;BME280;43937;41.366;2.072;2023-06-22T12:05:46;100834.63;;;37.55;26.08
56040;BME280;43937;41.366;2.072;2023-06-22T12:08:12;100811.59;;;37.48;26.34
56040;BME280;43937;41.366;2.072;2023-06-22T12:10:39;100827.44;;;36.99;26.83
56040;BME280;43937;41.366;2.072;2023-06-22T12:13:04;100836.75;;;36.31;27.58
56040;BME280;43937;41.366;2.072;2023-06-22T12:15:29;100841.06;;;36.37;26.66
56040;BME280;43937;41.366;2.072;2023-06-22T12:17:55;100844.09;;;36.32;27.23
56040;BME280;43937;41.366;2.072;2023-06-22T12:20:20;100835.56;;;36.41;26.97
56040;BME280;43937;41.366;2.072;2023-06-22T12:22:46;100844.81;;;36.67;28.96
56040;BME280;43937;41.366;2.072;2023-06-22T12:25:12;100823.50;;;37.42;27.96
56040;BME280;43937;41.366;2.072;2023-06-22T12:27:38;100859.22;;;37.85;27.74
56040;BME280;43937;41.366;2.072;2023-06-22T12:30:08;100854.47;;;38.10;26.93
56040;BME280;43937;41.366;2.072;2023-06-22T12:32:33;100843.41;;;37.12;28.48
56040;BME280;43937;41.366;2.072;2023-06-22T12:34:59;100854.09;;;37.36;28.65
56040;BME280;43937;41.366;2.072;2023-06-22T12:37:24;100840.75;;;36.30;29.74
56040;BME280;43937;41.366;2.072;2023-06-22T12:39:49;100840.97;;;35.90;30.68
56040;BME280;43937;41.366;2.072;2023-06-22T12:42:16;100854.13;;;36.21;29.41
56040;BME280;43937;41.366;2.072;2023-06-22T12:44:41;100848.16;;;35.70;27.28
56040;BME280;43937;41.366;2.072;2023-06-22T12:47:07;100855.31;;;36.67;26.77
56040;BME280;43937;41.366;2.072;2023-06-22T12:49:34;100856.59;;;36.78;29.10
56040;BME280;43937;41.366;2.072;2023-06-22T12:52:00;100852.59;;;37.59;28.51
56040;BME280;43937;41.366;2.072;2023-06-22T12:54:26;100849.22;;;37.16;28.08
56040;BME280;43937;41.366;2.072;2023-06-22T12:56:51;100860.03;;;36.45;29.14
56040;BME280;43937;41.366;2.072;2023-06-22T12:59:17;100846.47;;;35.95;30.70
56040;BME280;43937;41.366;2.072;2023-06-22T13:01:43;100866.94;;;35.40;31.56
56040;BME280;43937;41.366;2.072;2023-06-22T13:04:10;100856.84;;;35.74;30.65
56040;BME280;43937;41.366;2.072;2023-06-22T13:06:38;100849.34;;;36.60;30.44
56040;BME280;43937;41.366;2.072;2023-06-22T13:09:03;100855.34;;;37.26;29.54
56040;BME280;43937;41.366;2.072;2023-06-22T13:11:30;100849.13;;;36.74;30.35
56040;BME280;43937;41.366;2.072;2023-06-22T13:13:55;100865.44;;;36.21;31.50
56040;BME280;43937;41.366;2.072;2023-06-22T13:16:21;100860.81;;;36.08;32.08